Terminal Aerodrome Forecast
Issued by NWS

Home | Current Version | Previous Version | Text Only | Print | Product List | Glossary On
Versions: 1 2 3 4 5 6 7 8 9 10 11 12 13 14 15 16 17 18 19 20 21 22 23 24 25 26 27 28
000
FTPQ31 PGUM 031744
TAFGUM
TAF

TAF
PTYA 031744Z 0318/0418 29012KT P6SM -RA SCT016 BKN040 OVC100
      WS020/28030KT
      TEMPO 0318/0322 5SM SHRA BKN016 OVC030
     FM040000 29015G25KT P6SM VCSH SCT016 SCT040 BKN120=

USA.gov is the U.S. government's official web portal to all federal, state and local government web resources and services.